sensor_id;sensor_type;location;lat;lon;timestamp;P1;durP1;ratioP1;P2;durP2;ratioP2
18806;SDS011;9531;52.030;4.380;2023-03-03T00:00:42;12.67;;;6.90;;
18806;SDS011;9531;52.030;4.380;2023-03-03T00:03:10;12.00;;;6.27;;
18806;SDS011;9531;52.030;4.380;2023-03-03T00:05:42;10.57;;;6.00;;
18806;SDS011;9531;52.030;4.380;2023-03-03T00:08:09;12.10;;;6.13;;
18806;SDS011;9531;52.030;4.380;2023-03-03T00:10:37;13.03;;;6.53;;
18806;SDS011;9531;52.030;4.380;2023-03-03T00:13:05;12.93;;;6.27;;
18806;SDS011;9531;52.030;4.380;2023-03-03T00:15:38;11.40;;;6.50;;
18806;SDS011;9531;52.030;4.380;2023-03-03T00:18:10;13.43;;;6.93;;
18806;SDS011;9531;52.030;4.380;2023-03-03T00:20:47;12.83;;;6.17;;
18806;SDS011;9531;52.030;4.380;2023-03-03T00:23:29;13.30;;;6.50;;
18806;SDS011;9531;52.030;4.380;2023-03-03T00:26:01;11.90;;;6.13;;
18806;SDS011;9531;52.030;4.380;2023-03-03T00:28:40;12.07;;;5.87;;
18806;SDS011;9531;52.030;4.380;2023-03-03T00:31:14;11.03;;;6.00;;
18806;SDS011;9531;52.030;4.380;2023-03-03T00:33:46;13.20;;;6.53;;
18806;SDS011;9531;52.030;4.380;2023-03-03T00:36:29;12.20;;;5.87;;
18806;SDS011;9531;52.030;4.380;2023-03-03T00:39:16;10.93;;;6.07;;
18806;SDS011;9531;52.030;4.380;2023-03-03T00:41:48;10.03;;;6.07;;
18806;SDS011;9531;52.030;4.380;2023-03-03T00:44:30;13.23;;;6.73;;
18806;SDS011;9531;52.030;4.380;2023-03-03T00:50:26;11.53;;;6.57;;
18806;SDS011;9531;52.030;4.380;2023-03-03T00:53:01;11.07;;;5.97;;
18806;SDS011;9531;52.030;4.380;2023-03-03T00:55:33;13.30;;;6.70;;
18806;SDS011;9531;52.030;4.380;2023-03-03T00:58:01;13.23;;;6.40;;
18806;SDS011;9531;52.030;4.380;2023-03-03T01:00:29;11.33;;;6.03;;
18806;SDS011;9531;52.030;4.380;2023-03-03T01:02:57;12.07;;;5.83;;
18806;SDS011;9531;52.030;4.380;2023-03-03T01:05:28;10.03;;;6.03;;
18806;SDS011;9531;52.030;4.380;2023-03-03T01:07:55;13.90;;;6.40;;
18806;SDS011;9531;52.030;4.380;2023-03-03T01:10:29;11.33;;;5.70;;
18806;SDS011;9531;52.030;4.380;2023-03-03T01:12:59;10.20;;;4.97;;
18806;SDS011;9531;52.030;4.380;2023-03-03T01:15:27;11.30;;;5.17;;
18806;SDS011;9531;52.030;4.380;2023-03-03T01:17:54;8.90;;;4.57;;
18806;SDS011;9531;52.030;4.380;2023-03-03T01:20:21;8.43;;;4.67;;
18806;SDS011;9531;52.030;4.380;2023-03-03T01:22:50;9.63;;;5.00;;
18806;SDS011;9531;52.030;4.380;2023-03-03T01:25:17;10.10;;;4.53;;
18806;SDS011;9531;52.030;4.380;2023-03-03T01:27:44;9.03;;;4.17;;
18806;SDS011;9531;52.030;4.380;2023-03-03T01:30:12;7.77;;;4.17;;
18806;SDS011;9531;52.030;4.380;2023-03-03T01:32:41;7.07;;;4.47;;
18806;SDS011;9531;52.030;4.380;2023-03-03T01:35:09;5.97;;;3.90;;
18806;SDS011;9531;52.030;4.380;2023-03-03T01:37:36;7.10;;;3.80;;
18806;SDS011;9531;52.030;4.380;2023-03-03T01:40:07;6.47;;;3.90;;
18806;SDS011;9531;52.030;4.380;2023-03-03T01:42:39;6.83;;;3.77;;
18806;SDS011;9531;52.030;4.380;2023-03-03T01:45:12;6.93;;;3.07;;
18806;SDS011;9531;52.030;4.380;2023-03-03T01:47:43;9.90;;;3.80;;
18806;SDS011;9531;52.030;4.380;2023-03-03T01:50:30;6.53;;;3.60;;
18806;SDS011;9531;52.030;4.380;2023-03-03T01:53:03;8.30;;;3.60;;
18806;SDS011;9531;52.030;4.380;2023-03-03T01:55:38;5.07;;;3.23;;
18806;SDS011;9531;52.030;4.380;2023-03-03T01:58:08;7.17;;;3.30;;
18806;SDS011;9531;52.030;4.380;2023-03-03T02:00:42;6.27;;;3.63;;
18806;SDS011;9531;52.030;4.380;2023-03-03T02:03:14;4.40;;;3.20;;
18806;SDS011;9531;52.030;4.380;2023-03-03T02:05:43;7.33;;;3.60;;
18806;SDS011;9531;52.030;4.380;2023-03-03T02:08:10;5.43;;;3.17;;
18806;SDS011;9531;52.030;4.380;2023-03-03T02:10:41;8.30;;;3.50;;
18806;SDS011;9531;52.030;4.380;2023-03-03T02:13:10;7.13;;;3.50;;
18806;SDS011;9531;52.030;4.380;2023-03-03T02:15:38;10.50;;;4.23;;
18806;SDS011;9531;52.030;4.380;2023-03-03T02:18:06;4.53;;;3.20;;
18806;SDS011;9531;52.030;4.380;2023-03-03T02:20:43;6.30;;;3.40;;
18806;SDS011;9531;52.030;4.380;2023-03-03T02:23:20;5.93;;;3.23;;
18806;SDS011;9531;52.030;4.380;2023-03-03T02:25:59;7.43;;;3.67;;
18806;SDS011;9531;52.030;4.380;2023-03-03T02:28:31;6.87;;;3.83;;
18806;SDS011;9531;52.030;4.380;2023-03-03T02:31:01;6.13;;;3.50;;
18806;SDS011;9531;52.030;4.380;2023-03-03T02:33:28;5.70;;;3.77;;
18806;SDS011;9531;52.030;4.380;2023-03-03T02:35:56;7.57;;;3.67;;
18806;SDS011;9531;52.030;4.380;2023-03-03T02:38:24;8.10;;;4.53;;
18806;SDS011;9531;52.030;4.380;2023-03-03T02:41:02;6.60;;;3.80;;
18806;SDS011;9531;52.030;4.380;2023-03-03T02:43:36;6.77;;;3.70;;
18806;SDS011;9531;52.030;4.380;2023-03-03T02:46:09;6.93;;;4.07;;
18806;SDS011;9531;52.030;4.380;2023-03-03T02:48:37;6.50;;;3.10;;
18806;SDS011;9531;52.030;4.380;2023-03-03T02:51:04;9.17;;;3.93;;
18806;SDS011;9531;52.030;4.380;2023-03-03T02:53:31;6.20;;;3.33;;
18806;SDS011;9531;52.030;4.380;2023-03-03T02:56:00;6.87;;;3.63;;
18806;SDS011;9531;52.030;4.380;2023-03-03T02:58:28;7.43;;;3.70;;
18806;SDS011;9531;52.030;4.380;2023-03-03T03:00:56;7.53;;;3.63;;
18806;SDS011;9531;52.030;4.380;2023-03-03T03:03:23;7.37;;;3.30;;
18806;SDS011;9531;52.030;4.380;2023-03-03T03:05:50;5.50;;;3.20;;
18806;SDS011;9531;52.030;4.380;2023-03-03T03:08:18;8.13;;;3.80;;
18806;SDS011;9531;52.030;4.380;2023-03-03T03:10:47;5.87;;;3.30;;
18806;SDS011;9531;52.030;4.380;2023-03-03T03:13:16;6.80;;;3.67;;
18806;SDS011;9531;52.030;4.380;2023-03-03T03:15:44;9.17;;;3.80;;
18806;SDS011;9531;52.030;4.380;2023-03-03T03:18:11;7.40;;;3.87;;
18806;SDS011;9531;52.030;4.380;2023-03-03T03:20:39;8.53;;;3.60;;
18806;SDS011;9531;52.030;4.380;2023-03-03T03:23:06;4.90;;;2.90;;
18806;SDS011;9531;52.030;4.380;2023-03-03T03:25:40;9.33;;;3.60;;
18806;SDS011;9531;52.030;4.380;2023-03-03T03:28:09;7.00;;;3.67;;
18806;SDS011;9531;52.030;4.380;2023-03-03T03:30:40;8.70;;;3.80;;
18806;SDS011;9531;52.030;4.380;2023-03-03T03:33:08;6.93;;;4.03;;
18806;SDS011;9531;52.030;4.380;2023-03-03T03:35:35;9.63;;;3.70;;
18806;SDS011;9531;52.030;4.380;2023-03-03T03:38:04;7.60;;;3.47;;
18806;SDS011;9531;52.030;4.380;2023-03-03T03:40:32;6.30;;;3.20;;
18806;SDS011;9531;52.030;4.380;2023-03-03T03:42:59;8.57;;;3.67;;
18806;SDS011;9531;52.030;4.380;2023-03-03T03:45:26;6.90;;;3.43;;
18806;SDS011;9531;52.030;4.380;2023-03-03T03:47:55;6.60;;;3.80;;
18806;SDS011;9531;52.030;4.380;2023-03-03T03:50:22;6.60;;;3.30;;
18806;SDS011;9531;52.030;4.380;2023-03-03T03:52:49;6.03;;;3.10;;
18806;SDS011;9531;52.030;4.380;2023-03-03T03:55:18;6.90;;;3.60;;
18806;SDS011;9531;52.030;4.380;2023-03-03T03:57:47;6.03;;;3.47;;
18806;SDS011;9531;52.030;4.380;2023-03-03T04:00:14;5.27;;;2.97;;
18806;SDS011;9531;52.030;4.380;2023-03-03T04:02:42;5.50;;;3.37;;
18806;SDS011;9531;52.030;4.380;2023-03-03T04:05:12;5.87;;;2.70;;
18806;SDS011;9531;52.030;4.380;2023-03-03T04:07:41;4.80;;;2.80;;
18806;SDS011;9531;52.030;4.380;2023-03-03T04:10:14;5.80;;;3.33;;
18806;SDS011;9531;52.030;4.380;2023-03-03T04:12:42;6.40;;;3.10;;
18806;SDS011;9531;52.030;4.380;2023-03-03T04:15:09;7.27;;;3.20;;
18806;SDS011;9531;52.030;4.380;2023-03-03T04:17:39;5.13;;;2.83;;
18806;SDS011;9531;52.030;4.380;2023-03-03T04:20:07;5.37;;;2.87;;
18806;SDS011;9531;52.030;4.380;2023-03-03T04:22:39;5.77;;;3.00;;
18806;SDS011;9531;52.030;4.380;2023-03-03T04:25:07;6.63;;;3.77;;
18806;SDS011;9531;52.030;4.380;2023-03-03T04:27:39;7.40;;;4.20;;
18806;SDS011;9531;52.030;4.380;2023-03-03T04:30:14;6.53;;;3.53;;
18806;SDS011;9531;52.030;4.380;2023-03-03T04:32:41;9.53;;;5.53;;
18806;SDS011;9531;52.030;4.380;2023-03-03T04:35:08;7.97;;;4.50;;
18806;SDS011;9531;52.030;4.380;2023-03-03T04:37:37;7.70;;;4.33;;
18806;SDS011;9531;52.030;4.380;2023-03-03T04:40:06;6.87;;;4.23;;
18806;SDS011;9531;52.030;4.380;2023-03-03T04:42:35;10.37;;;5.13;;
18806;SDS011;9531;52.030;4.380;2023-03-03T04:45:03;7.73;;;4.43;;
18806;SDS011;9531;52.030;4.380;2023-03-03T04:47:37;9.27;;;4.20;;
18806;SDS011;9531;52.030;4.380;2023-03-03T04:50:06;7.63;;;4.10;;
18806;SDS011;9531;52.030;4.380;2023-03-03T04:52:34;7.93;;;4.23;;
18806;SDS011;9531;52.030;4.380;2023-03-03T04:55:02;7.73;;;4.33;;
18806;SDS011;9531;52.030;4.380;2023-03-03T04:57:31;10.57;;;4.97;;
18806;SDS011;9531;52.030;4.380;2023-03-03T05:00:01;7.13;;;4.17;;
18806;SDS011;9531;52.030;4.380;2023-03-03T05:02:28;8.73;;;4.70;;
18806;SDS011;9531;52.030;4.380;2023-03-03T05:04:56;9.43;;;5.40;;
18806;SDS011;9531;52.030;4.380;2023-03-03T05:07:24;9.40;;;5.13;;
18806;SDS011;9531;52.030;4.380;2023-03-03T05:09:51;10.03;;;5.40;;
18806;SDS011;9531;52.030;4.380;2023-03-03T05:12:19;7.87;;;4.90;;
18806;SDS011;9531;52.030;4.380;2023-03-03T05:14:48;6.90;;;4.53;;
18806;SDS011;9531;52.030;4.380;2023-03-03T05:17:16;10.47;;;5.17;;
18806;SDS011;9531;52.030;4.380;2023-03-03T05:19:43;8.13;;;4.67;;
18806;SDS011;9531;52.030;4.380;2023-03-03T05:22:10;8.13;;;4.70;;
18806;SDS011;9531;52.030;4.380;2023-03-03T05:24:38;8.93;;;4.93;;
18806;SDS011;9531;52.030;4.380;2023-03-03T05:27:07;7.60;;;4.87;;
18806;SDS011;9531;52.030;4.380;2023-03-03T05:29:36;10.20;;;5.47;;
18806;SDS011;9531;52.030;4.380;2023-03-03T05:32:04;8.37;;;5.27;;
18806;SDS011;9531;52.030;4.380;2023-03-03T05:34:31;8.97;;;5.37;;
18806;SDS011;9531;52.030;4.380;2023-03-03T05:36:59;10.63;;;6.30;;
18806;SDS011;9531;52.030;4.380;2023-03-03T05:39:27;8.33;;;5.40;;
18806;SDS011;9531;52.030;4.380;2023-03-03T05:41:55;10.93;;;5.97;;
18806;SDS011;9531;52.030;4.380;2023-03-03T05:44:24;7.77;;;5.03;;
18806;SDS011;9531;52.030;4.380;2023-03-03T05:46:51;10.70;;;5.57;;
18806;SDS011;9531;52.030;4.380;2023-03-03T05:49:22;9.00;;;5.13;;
18806;SDS011;9531;52.030;4.380;2023-03-03T05:51:50;7.10;;;4.73;;
18806;SDS011;9531;52.030;4.380;2023-03-03T05:54:17;11.13;;;6.13;;
18806;SDS011;9531;52.030;4.380;2023-03-03T05:56:44;9.13;;;4.80;;
18806;SDS011;9531;52.030;4.380;2023-03-03T05:59:11;9.90;;;5.87;;
18806;SDS011;9531;52.030;4.380;2023-03-03T06:01:39;10.17;;;5.30;;
18806;SDS011;9531;52.030;4.380;2023-03-03T06:04:06;15.67;;;6.37;;
18806;SDS011;9531;52.030;4.380;2023-03-03T06:06:35;11.57;;;5.50;;
18806;SDS011;9531;52.030;4.380;2023-03-03T06:09:02;14.70;;;5.87;;
18806;SDS011;9531;52.030;4.380;2023-03-03T06:11:30;9.03;;;5.53;;
18806;SDS011;9531;52.030;4.380;2023-03-03T06:13:57;10.10;;;5.27;;
18806;SDS011;9531;52.030;4.380;2023-03-03T06:16:26;9.97;;;6.00;;
18806;SDS011;9531;52.030;4.380;2023-03-03T06:18:53;9.00;;;5.53;;
18806;SDS011;9531;52.030;4.380;2023-03-03T06:21:20;7.43;;;5.40;;
18806;SDS011;9531;52.030;4.380;2023-03-03T06:23:49;11.37;;;5.63;;
18806;SDS011;9531;52.030;4.380;2023-03-03T06:26:16;9.77;;;5.60;;
18806;SDS011;9531;52.030;4.380;2023-03-03T06:28:45;9.90;;;5.20;;
18806;SDS011;9531;52.030;4.380;2023-03-03T06:31:19;8.37;;;5.13;;
18806;SDS011;9531;52.030;4.380;2023-03-03T06:33:47;7.87;;;4.53;;
18806;SDS011;9531;52.030;4.380;2023-03-03T06:36:15;10.17;;;5.57;;
18806;SDS011;9531;52.030;4.380;2023-03-03T06:38:43;8.17;;;5.00;;
18806;SDS011;9531;52.030;4.380;2023-03-03T06:41:11;10.00;;;5.20;;
18806;SDS011;9531;52.030;4.380;2023-03-03T06:43:38;8.03;;;4.70;;
18806;SDS011;9531;52.030;4.380;2023-03-03T06:46:06;7.80;;;5.03;;
18806;SDS011;9531;52.030;4.380;2023-03-03T06:48:33;8.60;;;4.70;;
18806;SDS011;9531;52.030;4.380;2023-03-03T06:53:50;10.17;;;4.83;;
18806;SDS011;9531;52.030;4.380;2023-03-03T06:56:22;11.20;;;5.53;;
18806;SDS011;9531;52.030;4.380;2023-03-03T06:58:50;10.80;;;4.90;;
18806;SDS011;9531;52.030;4.380;2023-03-03T07:01:25;8.10;;;4.80;;
18806;SDS011;9531;52.030;4.380;2023-03-03T07:03:57;10.50;;;5.20;;
18806;SDS011;9531;52.030;4.380;2023-03-03T07:06:25;8.23;;;5.00;;
18806;SDS011;9531;52.030;4.380;2023-03-03T07:08:54;10.67;;;5.60;;
18806;SDS011;9531;52.030;4.380;2023-03-03T07:11:30;13.00;;;6.97;;
18806;SDS011;9531;52.030;4.380;2023-03-03T07:14:01;10.77;;;5.60;;
18806;SDS011;9531;52.030;4.380;2023-03-03T07:16:28;12.20;;;6.40;;
18806;SDS011;9531;52.030;4.380;2023-03-03T07:18:56;10.93;;;6.20;;
18806;SDS011;9531;52.030;4.380;2023-03-03T07:21:29;8.97;;;5.80;;
18806;SDS011;9531;52.030;4.380;2023-03-03T07:23:58;8.87;;;5.63;;
18806;SDS011;9531;52.030;4.380;2023-03-03T07:26:36;8.63;;;5.27;;
18806;SDS011;9531;52.030;4.380;2023-03-03T07:29:12;10.53;;;6.07;;
18806;SDS011;9531;52.030;4.380;2023-03-03T07:31:47;10.97;;;5.70;;
18806;SDS011;9531;52.030;4.380;2023-03-03T07:34:18;8.83;;;5.53;;
18806;SDS011;9531;52.030;4.380;2023-03-03T07:36:47;8.57;;;5.17;;
18806;SDS011;9531;52.030;4.380;2023-03-03T07:39:25;9.47;;;5.37;;
18806;SDS011;9531;52.030;4.380;2023-03-03T07:42:06;8.00;;;5.00;;
18806;SDS011;9531;52.030;4.380;2023-03-03T07:44:46;7.53;;;4.90;;
18806;SDS011;9531;52.030;4.380;2023-03-03T07:47:18;8.77;;;5.20;;
18806;SDS011;9531;52.030;4.380;2023-03-03T07:49:47;9.00;;;5.23;;
18806;SDS011;9531;52.030;4.380;2023-03-03T07:52:25;11.83;;;5.33;;
18806;SDS011;9531;52.030;4.380;2023-03-03T07:54:54;9.20;;;5.27;;
18806;SDS011;9531;52.030;4.380;2023-03-03T07:57:25;8.33;;;5.07;;
18806;SDS011;9531;52.030;4.380;2023-03-03T07:59:58;10.70;;;6.17;;
18806;SDS011;9531;52.030;4.380;2023-03-03T08:02:37;9.00;;;4.80;;
18806;SDS011;9531;52.030;4.380;2023-03-03T08:08:13;12.60;;;6.27;;
18806;SDS011;9531;52.030;4.380;2023-03-03T08:10:47;9.10;;;5.23;;
18806;SDS011;9531;52.030;4.380;2023-03-03T08:13:21;11.77;;;5.67;;
18806;SDS011;9531;52.030;4.380;2023-03-03T08:15:49;8.73;;;5.20;;
18806;SDS011;9531;52.030;4.380;2023-03-03T08:18:23;9.83;;;5.07;;
18806;SDS011;9531;52.030;4.380;2023-03-03T08:20:55;9.67;;;6.13;;
18806;SDS011;9531;52.030;4.380;2023-03-03T08:23:29;11.47;;;5.97;;
18806;SDS011;9531;52.030;4.380;2023-03-03T08:25:56;9.60;;;5.73;;
18806;SDS011;9531;52.030;4.380;2023-03-03T08:28:24;13.13;;;7.10;;
18806;SDS011;9531;52.030;4.380;2023-03-03T08:30:59;13.00;;;7.37;;
18806;SDS011;9531;52.030;4.380;2023-03-03T08:33:26;10.00;;;5.60;;
18806;SDS011;9531;52.030;4.380;2023-03-03T08:35:53;11.17;;;6.20;;
18806;SDS011;9531;52.030;4.380;2023-03-03T08:38:21;14.57;;;6.37;;
18806;SDS011;9531;52.030;4.380;2023-03-03T08:40:48;13.83;;;6.50;;
18806;SDS011;9531;52.030;4.380;2023-03-03T08:43:16;10.47;;;6.20;;
18806;SDS011;9531;52.030;4.380;2023-03-03T08:45:47;10.97;;;6.13;;
18806;SDS011;9531;52.030;4.380;2023-03-03T08:48:15;11.80;;;5.90;;
18806;SDS011;9531;52.030;4.380;2023-03-03T08:50:48;9.90;;;5.23;;
18806;SDS011;9531;52.030;4.380;2023-03-03T08:53:16;10.70;;;5.27;;
18806;SDS011;9531;52.030;4.380;2023-03-03T08:55:43;9.87;;;5.57;;
18806;SDS011;9531;52.030;4.380;2023-03-03T08:58:11;13.20;;;6.67;;
18806;SDS011;9531;52.030;4.380;2023-03-03T09:00:38;10.23;;;6.10;;
18806;SDS011;9531;52.030;4.380;2023-03-03T09:03:11;11.73;;;6.40;;
18806;SDS011;9531;52.030;4.380;2023-03-03T09:05:39;9.93;;;5.43;;
18806;SDS011;9531;52.030;4.380;2023-03-03T09:08:06;11.13;;;5.40;;
18806;SDS011;9531;52.030;4.380;2023-03-03T09:10:34;9.27;;;5.50;;
18806;SDS011;9531;52.030;4.380;2023-03-03T09:13:03;8.43;;;5.20;;
18806;SDS011;9531;52.030;4.380;2023-03-03T09:15:37;8.67;;;5.30;;
18806;SDS011;9531;52.030;4.380;2023-03-03T09:18:13;10.13;;;5.40;;
18806;SDS011;9531;52.030;4.380;2023-03-03T09:20:42;10.53;;;5.40;;
18806;SDS011;9531;52.030;4.380;2023-03-03T09:26:16;9.80;;;5.50;;
18806;SDS011;9531;52.030;4.380;2023-03-03T09:28:52;11.00;;;5.63;;
18806;SDS011;9531;52.030;4.380;2023-03-03T09:31:23;10.60;;;5.70;;
18806;SDS011;9531;52.030;4.380;2023-03-03T09:33:54;7.73;;;5.20;;
18806;SDS011;9531;52.030;4.380;2023-03-03T09:36:24;10.13;;;4.78;;
18806;SDS011;9531;52.030;4.380;2023-03-03T09:38:52;7.60;;;5.05;;
18806;SDS011;9531;52.030;4.380;2023-03-03T09:44:34;9.50;;;5.45;;
18806;SDS011;9531;52.030;4.380;2023-03-03T09:47:18;7.28;;;4.60;;
18806;SDS011;9531;52.030;4.380;2023-03-03T09:50:09;8.35;;;5.20;;
18806;SDS011;9531;52.030;4.380;2023-03-03T09:52:45;7.03;;;4.05;;
18806;SDS011;9531;52.030;4.380;2023-03-03T09:55:25;6.10;;;4.20;;
18806;SDS011;9531;52.030;4.380;2023-03-03T09:58:04;7.50;;;4.25;;
18806;SDS011;9531;52.030;4.380;2023-03-03T10:00:44;7.10;;;4.20;;
18806;SDS011;9531;52.030;4.380;2023-03-03T10:03:25;9.43;;;4.30;;
18806;SDS011;9531;52.030;4.380;2023-03-03T10:06:13;6.82;;;3.83;;
18806;SDS011;9531;52.030;4.380;2023-03-03T10:09:00;5.65;;;3.42;;
18806;SDS011;9531;52.030;4.380;2023-03-03T10:11:37;5.97;;;3.58;;
18806;SDS011;9531;52.030;4.380;2023-03-03T10:14:18;4.82;;;3.60;;
18806;SDS011;9531;52.030;4.380;2023-03-03T10:17:01;6.05;;;3.08;;
18806;SDS011;9531;52.030;4.380;2023-03-03T10:19:43;5.15;;;3.20;;
18806;SDS011;9531;52.030;4.380;2023-03-03T10:22:25;5.03;;;3.35;;
18806;SDS011;9531;52.030;4.380;2023-03-03T10:25:07;6.57;;;3.30;;
18806;SDS011;9531;52.030;4.380;2023-03-03T10:27:49;3.75;;;2.50;;
18806;SDS011;9531;52.030;4.380;2023-03-03T10:30:34;3.20;;;2.70;;
18806;SDS011;9531;52.030;4.380;2023-03-03T10:33:13;4.95;;;2.40;;
18806;SDS011;9531;52.030;4.380;2023-03-03T10:36:11;4.40;;;2.38;;
18806;SDS011;9531;52.030;4.380;2023-03-03T10:39:03;3.80;;;2.47;;
18806;SDS011;9531;52.030;4.380;2023-03-03T10:41:51;3.67;;;2.70;;
18806;SDS011;9531;52.030;4.380;2023-03-03T10:50:41;4.85;;;2.83;;
18806;SDS011;9531;52.030;4.380;2023-03-03T10:53:20;2.40;;;2.05;;
18806;SDS011;9531;52.030;4.380;2023-03-03T10:56:00;3.58;;;1.90;;
18806;SDS011;9531;52.030;4.380;2023-03-03T10:58:44;3.45;;;2.13;;
18806;SDS011;9531;52.030;4.380;2023-03-03T11:01:20;3.40;;;1.90;;
18806;SDS011;9531;52.030;4.380;2023-03-03T11:04:10;3.17;;;1.80;;
18806;SDS011;9531;52.030;4.380;2023-03-03T11:06:57;4.22;;;1.90;;
18806;SDS011;9531;52.030;4.380;2023-03-03T11:09:46;3.15;;;2.05;;
18806;SDS011;9531;52.030;4.380;2023-03-03T11:12:30;2.75;;;1.85;;
18806;SDS011;9531;52.030;4.380;2023-03-03T11:15:08;3.67;;;1.80;;
18806;SDS011;9531;52.030;4.380;2023-03-03T11:17:58;2.92;;;1.52;;
18806;SDS011;9531;52.030;4.380;2023-03-03T11:20:42;2.20;;;1.48;;
18806;SDS011;9531;52.030;4.380;2023-03-03T11:23:23;2.05;;;1.55;;
18806;SDS011;9531;52.030;4.380;2023-03-03T11:26:11;3.08;;;1.30;;
18806;SDS011;9531;52.030;4.380;2023-03-03T11:28:53;2.55;;;1.60;;
18806;SDS011;9531;52.030;4.380;2023-03-03T11:31:27;2.35;;;1.20;;
18806;SDS011;9531;52.030;4.380;2023-03-03T11:34:05;2.22;;;1.30;;
18806;SDS011;9531;52.030;4.380;2023-03-03T11:36:41;1.63;;;1.20;;
18806;SDS011;9531;52.030;4.380;2023-03-03T11:39:17;1.55;;;1.00;;
18806;SDS011;9531;52.030;4.380;2023-03-03T11:41:49;2.65;;;1.38;;
18806;SDS011;9531;52.030;4.380;2023-03-03T11:44:29;1.55;;;1.17;;
18806;SDS011;9531;52.030;4.380;2023-03-03T11:47:02;1.65;;;1.00;;
18806;SDS011;9531;52.030;4.380;2023-03-03T11:52:16;4.03;;;1.70;;
18806;SDS011;9531;52.030;4.380;2023-03-03T11:54:50;1.88;;;1.27;;
18806;SDS011;9531;52.030;4.380;2023-03-03T11:57:21;2.03;;;1.38;;
18806;SDS011;9531;52.030;4.380;2023-03-03T11:59:58;4.70;;;1.40;;
18806;SDS011;9531;52.030;4.380;2023-03-03T12:02:49;1.77;;;1.10;;
18806;SDS011;9531;52.030;4.380;2023-03-03T12:05:26;2.13;;;1.45;;
18806;SDS011;9531;52.030;4.380;2023-03-03T12:08:05;2.30;;;1.20;;
18806;SDS011;9531;52.030;4.380;2023-03-03T12:10:40;1.95;;;1.42;;
18806;SDS011;9531;52.030;4.380;2023-03-03T12:13:16;2.72;;;1.45;;
18806;SDS011;9531;52.030;4.380;2023-03-03T12:15:50;2.28;;;1.63;;
18806;SDS011;9531;52.030;4.380;2023-03-03T12:18:26;2.92;;;1.63;;
18806;SDS011;9531;52.030;4.380;2023-03-03T12:21:13;5.95;;;2.15;;
18806;SDS011;9531;52.030;4.380;2023-03-03T12:23:52;2.65;;;1.77;;
18806;SDS011;9531;52.030;4.380;2023-03-03T12:26:31;3.53;;;1.52;;
18806;SDS011;9531;52.030;4.380;2023-03-03T12:29:10;2.72;;;1.35;;
18806;SDS011;9531;52.030;4.380;2023-03-03T12:31:50;3.53;;;1.20;;
18806;SDS011;9531;52.030;4.380;2023-03-03T12:34:21;2.60;;;0.90;;
18806;SDS011;9531;52.030;4.380;2023-03-03T12:36:55;4.60;;;1.00;;
18806;SDS011;9531;52.030;4.380;2023-03-03T12:39:43;2.30;;;1.17;;
18806;SDS011;9531;52.030;4.380;2023-03-03T12:42:19;2.42;;;1.02;;
18806;SDS011;9531;52.030;4.380;2023-03-03T12:44:59;1.35;;;0.80;;
18806;SDS011;9531;52.030;4.380;2023-03-03T12:47:44;4.38;;;1.10;;
18806;SDS011;9531;52.030;4.380;2023-03-03T12:50:20;2.47;;;0.90;;
18806;SDS011;9531;52.030;4.380;2023-03-03T12:55:32;0.88;;;0.70;;
18806;SDS011;9531;52.030;4.380;2023-03-03T12:58:10;1.95;;;1.00;;
18806;SDS011;9531;52.030;4.380;2023-03-03T13:00:48;1.83;;;0.80;;
18806;SDS011;9531;52.030;4.380;2023-03-03T13:03:25;2.35;;;0.75;;
18806;SDS011;9531;52.030;4.380;2023-03-03T13:06:03;2.53;;;0.70;;
18806;SDS011;9531;52.030;4.380;2023-03-03T13:08:43;2.15;;;0.60;;
18806;SDS011;9531;52.030;4.380;2023-03-03T13:14:22;2.05;;;0.77;;
18806;SDS011;9531;52.030;4.380;2023-03-03T13:16:59;1.55;;;0.70;;
18806;SDS011;9531;52.030;4.380;2023-03-03T13:19:36;1.50;;;0.70;;
18806;SDS011;9531;52.030;4.380;2023-03-03T13:22:08;2.42;;;0.80;;
18806;SDS011;9531;52.030;4.380;2023-03-03T13:24:41;2.10;;;0.75;;
18806;SDS011;9531;52.030;4.380;2023-03-03T13:27:21;1.73;;;0.80;;
18806;SDS011;9531;52.030;4.380;2023-03-03T13:29:54;4.78;;;1.13;;
18806;SDS011;9531;52.030;4.380;2023-03-03T13:32:28;1.77;;;0.55;;
18806;SDS011;9531;52.030;4.380;2023-03-03T13:35:04;1.08;;;0.60;;
18806;SDS011;9531;52.030;4.380;2023-03-03T13:37:35;2.42;;;1.00;;
18806;SDS011;9531;52.030;4.380;2023-03-03T13:40:12;2.78;;;0.70;;
18806;SDS011;9531;52.030;4.380;2023-03-03T13:42:44;1.38;;;0.60;;
18806;SDS011;9531;52.030;4.380;2023-03-03T13:45:19;2.53;;;1.05;;
18806;SDS011;9531;52.030;4.380;2023-03-03T13:47:55;1.63;;;0.60;;
18806;SDS011;9531;52.030;4.380;2023-03-03T13:50:37;2.47;;;0.82;;
18806;SDS011;9531;52.030;4.380;2023-03-03T13:56:02;2.17;;;0.88;;
18806;SDS011;9531;52.030;4.380;2023-03-03T13:58:44;1.23;;;0.75;;
18806;SDS011;9531;52.030;4.380;2023-03-03T14:01:21;1.50;;;0.70;;
18806;SDS011;9531;52.030;4.380;2023-03-03T14:04:11;5.15;;;1.20;;
18806;SDS011;9531;52.030;4.380;2023-03-03T14:06:49;2.00;;;0.73;;
18806;SDS011;9531;52.030;4.380;2023-03-03T14:09:34;1.70;;;0.70;;
18806;SDS011;9531;52.030;4.380;2023-03-03T14:12:12;5.00;;;0.85;;
18806;SDS011;9531;52.030;4.380;2023-03-03T14:14:49;1.90;;;0.90;;
18806;SDS011;9531;52.030;4.380;2023-03-03T14:17:26;1.88;;;1.00;;
18806;SDS011;9531;52.030;4.380;2023-03-03T14:20:02;2.40;;;1.20;;
18806;SDS011;9531;52.030;4.380;2023-03-03T14:22:43;3.15;;;1.30;;
18806;SDS011;9531;52.030;4.380;2023-03-03T14:25:16;3.25;;;1.70;;
18806;SDS011;9531;52.030;4.380;2023-03-03T14:27:53;2.17;;;1.50;;
18806;SDS011;9531;52.030;4.380;2023-03-03T14:30:33;3.38;;;1.45;;
18806;SDS011;9531;52.030;4.380;2023-03-03T14:33:25;6.15;;;1.63;;
18806;SDS011;9531;52.030;4.380;2023-03-03T14:36:05;4.00;;;1.85;;
18806;SDS011;9531;52.030;4.380;2023-03-03T14:38:39;3.65;;;1.67;;
18806;SDS011;9531;52.030;4.380;2023-03-03T14:41:18;3.47;;;1.70;;
18806;SDS011;9531;52.030;4.380;2023-03-03T14:43:55;3.55;;;1.50;;
18806;SDS011;9531;52.030;4.380;2023-03-03T14:46:33;1.52;;;1.05;;
18806;SDS011;9531;52.030;4.380;2023-03-03T14:49:04;2.53;;;1.13;;
18806;SDS011;9531;52.030;4.380;2023-03-03T14:51:39;2.53;;;0.93;;
18806;SDS011;9531;52.030;4.380;2023-03-03T14:54:14;4.80;;;1.30;;
18806;SDS011;9531;52.030;4.380;2023-03-03T14:56:56;3.22;;;0.90;;
18806;SDS011;9531;52.030;4.380;2023-03-03T14:59:31;1.40;;;0.80;;
18806;SDS011;9531;52.030;4.380;2023-03-03T15:02:02;2.15;;;0.98;;
18806;SDS011;9531;52.030;4.380;2023-03-03T15:04:50;1.95;;;1.38;;
18806;SDS011;9531;52.030;4.380;2023-03-03T15:07:41;2.50;;;1.20;;
18806;SDS011;9531;52.030;4.380;2023-03-03T15:10:10;3.78;;;1.20;;
18806;SDS011;9531;52.030;4.380;2023-03-03T15:12:39;2.05;;;1.30;;
18806;SDS011;9531;52.030;4.380;2023-03-03T15:15:15;2.03;;;1.33;;
18806;SDS011;9531;52.030;4.380;2023-03-03T15:17:52;1.73;;;1.27;;
18806;SDS011;9531;52.030;4.380;2023-03-03T15:20:23;1.48;;;1.10;;
18806;SDS011;9531;52.030;4.380;2023-03-03T15:23:00;1.65;;;1.10;;
18806;SDS011;9531;52.030;4.380;2023-03-03T15:25:52;2.40;;;1.08;;
18806;SDS011;9531;52.030;4.380;2023-03-03T15:28:26;2.83;;;1.00;;
18806;SDS011;9531;52.030;4.380;2023-03-03T15:31:06;2.38;;;1.10;;
18806;SDS011;9531;52.030;4.380;2023-03-03T15:33:45;2.40;;;0.90;;
18806;SDS011;9531;52.030;4.380;2023-03-03T15:36:22;5.20;;;1.17;;
18806;SDS011;9531;52.030;4.380;2023-03-03T15:38:59;1.25;;;0.98;;
18806;SDS011;9531;52.030;4.380;2023-03-03T15:41:39;3.75;;;1.08;;
18806;SDS011;9531;52.030;4.380;2023-03-03T15:44:14;3.30;;;1.20;;
18806;SDS011;9531;52.030;4.380;2023-03-03T15:49:45;2.03;;;1.00;;
18806;SDS011;9531;52.030;4.380;2023-03-03T15:52:26;2.90;;;1.02;;
18806;SDS011;9531;52.030;4.380;2023-03-03T15:55:06;2.15;;;1.05;;
18806;SDS011;9531;52.030;4.380;2023-03-03T15:57:44;2.67;;;1.30;;
18806;SDS011;9531;52.030;4.380;2023-03-03T16:00:23;2.40;;;1.17;;
18806;SDS011;9531;52.030;4.380;2023-03-03T16:02:59;5.35;;;1.40;;
18806;SDS011;9531;52.030;4.380;2023-03-03T16:05:32;1.52;;;1.13;;
18806;SDS011;9531;52.030;4.380;2023-03-03T16:08:02;2.33;;;1.02;;
18806;SDS011;9531;52.030;4.380;2023-03-03T16:10:38;1.52;;;1.17;;